Via Mare — 9LD2472 — position and weather

sailwx.info

Track history (hours):
 
Tides and Currents Weather Stations Pressure Air Temp Water Temp Dewpoint Dewpoint Depression Visibility Wind Speed Wind Dir Waves Ship Positions

Via Mare

Last reported at 2017-Sep-14 15:12 UTC. Time now 2017-Oct-17 20:32 UTC.
Position N 36°48' E 034°39'.
Warning: this ship's position is 33 days out of date.

Length 118 m; draft 5 m.

Type: Passenger vessel. MMSI: 667005172.

Date/timePositionNaut miles runAvg speedWind from/ knotsBaromVisibWave heightAir tempDewpointWater temp
2017-Sep-14 15:12N 36°48' E 034°39'0 0.0
2017-Sep-14 14:57N 36°48' E 034°39'0 0.0
2017-Sep-14 12:30N 36°48' E 034°39'0 0.0
2017-Sep-14 12:00N 36°48' E 034°39'85 6.9
2017-Sep-13 23:42N 35°39' E 033°37'212.5
2017-Sep-13 23:31N 35°37' E 033°36'612.6
2017-Sep-13 23:00N 35°32' E 033°31'712.7
2017-Sep-13 22:29N 35°27' E 033°26'812.6
2017-Sep-13 21:53N 35°21' E 033°21'0 0.4
2017-Sep-13 20:45N 35°21' E 033°20'0 0.0
2017-Sep-13 20:30N 35°21' E 033°20'0 0.0
2017-Sep-13 20:00N 35°21' E 033°20'0 0.0
2017-Sep-13 19:30N 35°21' E 033°20'0 0.0
2017-Sep-13 18:54N 35°21' E 033°20'0 0.0
2017-Sep-13 18:30N 35°21' E 033°20'0 0.0
2017-Sep-13 17:57N 35°21' E 033°20'0 0.0
2017-Sep-13 17:15N 35°21' E 033°20'0 0.0
2017-Sep-13 17:00N 35°21' E 033°20'0 0.0
2017-Sep-13 16:24N 35°21' E 033°20'0 0.0
2017-Sep-13 15:33N 35°21' E 033°20'0 0.0
2017-Sep-13 15:24N 35°21' E 033°20'0 0.0
2017-Sep-13 15:00N 35°21' E 033°20'0 0.0
2017-Sep-13 14:30N 35°21' E 033°20'0 0.0
2017-Sep-13 13:57N 35°21' E 033°20'0 0.0
2017-Sep-13 13:30N 35°21' E 033°20'0 0.0
2017-Sep-13 12:57N 35°21' E 033°20'0 0.0
2017-Sep-13 11:33N 35°21' E 033°20'0 0.1
2017-Sep-13 11:30N 35°21' E 033°20'108 6.0
2017-Sep-12 17:34N 36°48' E 034°39'0 0.0
2017-Sep-12 17:22N 36°48' E 034°39'0 0.0
2017-Sep-12 16:10N 36°48' E 034°39'0 0.0
2017-Sep-12 15:52N 36°48' E 034°39'0 0.0
2017-Sep-12 12:49N 36°48' E 034°39'0 0.0
2017-Sep-12 12:12N 36°48' E 034°39'85 6.6
2017-Sep-11 23:14N 35°39' E 033°37'312.7
2017-Sep-11 23:00N 35°36' E 033°35'612.8
2017-Sep-11 22:30N 35°31' E 033°30'612.9
2017-Sep-11 22:00N 35°26' E 033°26'612.8
2017-Sep-11 21:30N 35°21' E 033°21'1 1.4
2017-Sep-11 20:55N 35°21' E 033°20'0 0.0
2017-Sep-11 20:28N 35°21' E 033°20'0 0.0
2017-Sep-11 19:55N 35°21' E 033°20'0 0.0
2017-Sep-11 19:04N 35°21' E 033°20'0 0.1
2017-Sep-11 18:58N 35°21' E 033°20'0 0.0
2017-Sep-11 18:19N 35°21' E 033°20'0 0.0
2017-Sep-11 17:49N 35°21' E 033°20'0 0.0
2017-Sep-11 17:13N 35°21' E 033°20'0 0.0
2017-Sep-11 16:49N 35°21' E 033°20'0 0.0
2017-Sep-11 16:25N 35°21' E 033°20'0 0.0
2017-Sep-11 15:58N 35°21' E 033°20'0 0.0
2017-Sep-11 14:02N 35°21' E 033°20'0 0.0
2017-Sep-11 13:55N 35°21' E 033°20'0 0.0
2017-Sep-11 13:25N 35°21' E 033°20'0 0.0
2017-Sep-11 12:58N 35°21' E 033°20'0 0.0
2017-Sep-11 12:25N 35°21' E 033°20'0 0.0
2017-Sep-11 11:58N 35°21' E 033°20'0 0.0
2017-Sep-11 11:28N 35°21' E 033°20'0 0.0
2017-Sep-11 10:58N 35°21' E 033°20'0 0.0
2017-Sep-11 10:28N 35°21' E 033°20'0 0.0
2017-Sep-11 09:58N 35°21' E 033°20'0 0.0
2017-Sep-11 09:28N 35°21' E 033°20'0 0.0
2017-Sep-11 08:58N 35°21' E 033°20'0 0.0
2017-Sep-11 08:28N 35°21' E 033°20'0 0.0
2017-Sep-11 07:58N 35°21' E 033°20'0 0.0
2017-Sep-11 07:28N 35°21' E 033°20'0 0.1
2017-Sep-11 07:00N 35°21' E 033°20'5 9.3
2017-Sep-11 06:30N 35°24' E 033°24'612.3
2017-Sep-11 06:01N 35°29' E 033°29'1012.2
2017-Sep-11 05:12N 35°37' E 033°36'88 2.3
2017-Sep-09 14:12N 36°48' E 034°39'0 0.0
2017-Sep-09 14:00N 36°48' E 034°39'0 0.0
2017-Sep-09 11:24N 36°48' E 034°39'0 0.0
2017-Sep-09 08:57N 36°48' E 034°39'0 0.0
2017-Sep-09 08:30N 36°48' E 034°39'0 0.0
2017-Sep-09 08:00N 36°48' E 034°39'0 0.0
2017-Sep-09 06:57N 36°48' E 034°39'1 2.7
2017-Sep-09 06:30N 36°47' E 034°39'8512.1
2017-Sep-08 23:31N 35°39' E 033°37'012.9
2017-Sep-08 23:29N 35°38' E 033°37'613.1
2017-Sep-08 23:00N 35°33' E 033°32'613.1
2017-Sep-08 22:31N 35°28' E 033°27'813.0
2017-Sep-08 21:51N 35°21' E 033°21'1 2.3
2017-Sep-08 21:25N 35°21' E 033°20'0 0.0
2017-Sep-08 19:46N 35°21' E 033°20'0 0.0
2017-Sep-08 17:52N 35°21' E 033°20'0 0.0
2017-Sep-08 17:25N 35°21' E 033°20'0 0.0
2017-Sep-08 14:34N 35°21' E 033°20'0 0.0
2017-Sep-08 14:19N 35°21' E 033°20'0 0.0
2017-Sep-08 13:58N 35°21' E 033°20'0 0.0
2017-Sep-08 11:13N 35°21' E 033°20'0 0.0
2017-Sep-08 10:58N 35°21' E 033°20'0 0.0
2017-Sep-08 10:28N 35°21' E 033°20'  
Track history (hours):
 
Tides and Currents Weather Stations Pressure Air Temp Water Temp Dewpoint Dewpoint Depression Visibility Wind Speed Wind Dir Waves Ship Positions

Via Mare

Last reported at 2017-Sep-14 15:12 UTC. Time now 2017-Oct-17 20:32 UTC.
Position N 36°48' E 034°39'.
Warning: this ship's position is 33 days out of date.

Length 118 m; draft 5 m.

Type: Passenger vessel. MMSI: 667005172.

Date/timePositionNaut miles runAvg speedWind from/ knotsBaromVisibWave heightAir tempDewpointWater temp
2017-Sep-14 15:12N 36°48' E 034°39'0 0.0
2017-Sep-14 14:57N 36°48' E 034°39'0 0.0
2017-Sep-14 12:30N 36°48' E 034°39'0 0.0
2017-Sep-14 12:00N 36°48' E 034°39'85 6.9
2017-Sep-13 23:42N 35°39' E 033°37'212.5
2017-Sep-13 23:31N 35°37' E 033°36'612.6
2017-Sep-13 23:00N 35°32' E 033°31'712.7
2017-Sep-13 22:29N 35°27' E 033°26'812.6
2017-Sep-13 21:53N 35°21' E 033°21'0 0.4
2017-Sep-13 20:45N 35°21' E 033°20'0 0.0
2017-Sep-13 20:30N 35°21' E 033°20'0 0.0
2017-Sep-13 20:00N 35°21' E 033°20'0 0.0
2017-Sep-13 19:30N 35°21' E 033°20'0 0.0
2017-Sep-13 18:54N 35°21' E 033°20'0 0.0
2017-Sep-13 18:30N 35°21' E 033°20'0 0.0
2017-Sep-13 17:57N 35°21' E 033°20'0 0.0
2017-Sep-13 17:15N 35°21' E 033°20'0 0.0
2017-Sep-13 17:00N 35°21' E 033°20'0 0.0
2017-Sep-13 16:24N 35°21' E 033°20'0 0.0
2017-Sep-13 15:33N 35°21' E 033°20'0 0.0
2017-Sep-13 15:24N 35°21' E 033°20'0 0.0
2017-Sep-13 15:00N 35°21' E 033°20'0 0.0
2017-Sep-13 14:30N 35°21' E 033°20'0 0.0
2017-Sep-13 13:57N 35°21' E 033°20'0 0.0
2017-Sep-13 13:30N 35°21' E 033°20'0 0.0
2017-Sep-13 12:57N 35°21' E 033°20'0 0.0
2017-Sep-13 11:33N 35°21' E 033°20'0 0.1
2017-Sep-13 11:30N 35°21' E 033°20'108 6.0
2017-Sep-12 17:34N 36°48' E 034°39'0 0.0
2017-Sep-12 17:22N 36°48' E 034°39'0 0.0
2017-Sep-12 16:10N 36°48' E 034°39'0 0.0
2017-Sep-12 15:52N 36°48' E 034°39'0 0.0
2017-Sep-12 12:49N 36°48' E 034°39'0 0.0
2017-Sep-12 12:12N 36°48' E 034°39'85 6.6
2017-Sep-11 23:14N 35°39' E 033°37'312.7
2017-Sep-11 23:00N 35°36' E 033°35'612.8
2017-Sep-11 22:30N 35°31' E 033°30'612.9
2017-Sep-11 22:00N 35°26' E 033°26'612.8
2017-Sep-11 21:30N 35°21' E 033°21'1 1.4
2017-Sep-11 20:55N 35°21' E 033°20'0 0.0
2017-Sep-11 20:28N 35°21' E 033°20'0 0.0
2017-Sep-11 19:55N 35°21' E 033°20'0 0.0
2017-Sep-11 19:04N 35°21' E 033°20'0 0.1
2017-Sep-11 18:58N 35°21' E 033°20'0 0.0
2017-Sep-11 18:19N 35°21' E 033°20'0 0.0
2017-Sep-11 17:49N 35°21' E 033°20'0 0.0
2017-Sep-11 17:13N 35°21' E 033°20'0 0.0
2017-Sep-11 16:49N 35°21' E 033°20'0 0.0
2017-Sep-11 16:25N 35°21' E 033°20'0 0.0
2017-Sep-11 15:58N 35°21' E 033°20'0 0.0
2017-Sep-11 14:02N 35°21' E 033°20'0 0.0
2017-Sep-11 13:55N 35°21' E 033°20'0 0.0
2017-Sep-11 13:25N 35°21' E 033°20'0 0.0
2017-Sep-11 12:58N 35°21' E 033°20'0 0.0
2017-Sep-11 12:25N 35°21' E 033°20'0 0.0
2017-Sep-11 11:58N 35°21' E 033°20'0 0.0
2017-Sep-11 11:28N 35°21' E 033°20'0 0.0
2017-Sep-11 10:58N 35°21' E 033°20'0 0.0
2017-Sep-11 10:28N 35°21' E 033°20'0 0.0
2017-Sep-11 09:58N 35°21' E 033°20'0 0.0
2017-Sep-11 09:28N 35°21' E 033°20'0 0.0
2017-Sep-11 08:58N 35°21' E 033°20'0 0.0
2017-Sep-11 08:28N 35°21' E 033°20'0 0.0
2017-Sep-11 07:58N 35°21' E 033°20'0 0.0
2017-Sep-11 07:28N 35°21' E 033°20'0 0.1
2017-Sep-11 07:00N 35°21' E 033°20'5 9.3
2017-Sep-11 06:30N 35°24' E 033°24'612.3
2017-Sep-11 06:01N 35°29' E 033°29'1012.2
2017-Sep-11 05:12N 35°37' E 033°36'88 2.3
2017-Sep-09 14:12N 36°48' E 034°39'0 0.0
2017-Sep-09 14:00N 36°48' E 034°39'0 0.0
2017-Sep-09 11:24N 36°48' E 034°39'0 0.0
2017-Sep-09 08:57N 36°48' E 034°39'0 0.0
2017-Sep-09 08:30N 36°48' E 034°39'0 0.0
2017-Sep-09 08:00N 36°48' E 034°39'0 0.0
2017-Sep-09 06:57N 36°48' E 034°39'1 2.7
2017-Sep-09 06:30N 36°47' E 034°39'8512.1
2017-Sep-08 23:31N 35°39' E 033°37'012.9
2017-Sep-08 23:29N 35°38' E 033°37'613.1
2017-Sep-08 23:00N 35°33' E 033°32'613.1
2017-Sep-08 22:31N 35°28' E 033°27'813.0
2017-Sep-08 21:51N 35°21' E 033°21'1 2.3
2017-Sep-08 21:25N 35°21' E 033°20'0 0.0
2017-Sep-08 19:46N 35°21' E 033°20'0 0.0
2017-Sep-08 17:52N 35°21' E 033°20'0 0.0
2017-Sep-08 17:25N 35°21' E 033°20'0 0.0
2017-Sep-08 14:34N 35°21' E 033°20'0 0.0
2017-Sep-08 14:19N 35°21' E 033°20'0 0.0
2017-Sep-08 13:58N 35°21' E 033°20'0 0.0
2017-Sep-08 11:13N 35°21' E 033°20'0 0.0
2017-Sep-08 10:58N 35°21' E 033°20'0 0.0
2017-Sep-08 10:28N 35°21' E 033°20'  

Dump ship's entire track history